sensor_id;sensor_type;location;lat;lon;timestamp;P1;durP1;ratioP1;P2;durP2;ratioP2
69188;SDS011;56302;52.322;5.926;2022-08-01T00:00:33;6.72;;;3.33;;
69188;SDS011;56302;52.322;5.926;2022-08-01T00:02:59;6.97;;;3.27;;
69188;SDS011;56302;52.322;5.926;2022-08-01T00:05:24;7.30;;;3.10;;
69188;SDS011;56302;52.322;5.926;2022-08-01T00:07:50;6.17;;;2.90;;
69188;SDS011;56302;52.322;5.926;2022-08-01T00:10:16;5.25;;;2.65;;
69188;SDS011;56302;52.322;5.926;2022-08-01T00:12:43;4.70;;;2.50;;
69188;SDS011;56302;52.322;5.926;2022-08-01T00:15:11;5.93;;;2.97;;
69188;SDS011;56302;52.322;5.926;2022-08-01T00:17:38;6.28;;;3.42;;
69188;SDS011;56302;52.322;5.926;2022-08-01T00:20:05;5.70;;;2.92;;
69188;SDS011;56302;52.322;5.926;2022-08-01T00:22:33;4.28;;;2.63;;
69188;SDS011;56302;52.322;5.926;2022-08-01T00:24:59;4.37;;;2.40;;
69188;SDS011;56302;52.322;5.926;2022-08-01T00:27:24;6.75;;;2.83;;
69188;SDS011;56302;52.322;5.926;2022-08-01T00:29:50;6.10;;;2.60;;
69188;SDS011;56302;52.322;5.926;2022-08-01T00:32:16;6.33;;;3.10;;
69188;SDS011;56302;52.322;5.926;2022-08-01T00:34:41;5.07;;;2.80;;
69188;SDS011;56302;52.322;5.926;2022-08-01T00:37:07;8.00;;;3.17;;
69188;SDS011;56302;52.322;5.926;2022-08-01T00:39:32;6.57;;;3.13;;
69188;SDS011;56302;52.322;5.926;2022-08-01T00:41:58;5.97;;;3.10;;
69188;SDS011;56302;52.322;5.926;2022-08-01T00:44:24;5.57;;;3.10;;
69188;SDS011;56302;52.322;5.926;2022-08-01T00:46:50;6.30;;;2.75;;
69188;SDS011;56302;52.322;5.926;2022-08-01T00:49:16;6.53;;;2.60;;
69188;SDS011;56302;52.322;5.926;2022-08-01T00:51:41;6.40;;;3.22;;
69188;SDS011;56302;52.322;5.926;2022-08-01T00:54:07;5.87;;;2.80;;
69188;SDS011;56302;52.322;5.926;2022-08-01T00:56:33;5.57;;;2.80;;
69188;SDS011;56302;52.322;5.926;2022-08-01T00:58:58;5.23;;;2.70;;
69188;SDS011;56302;52.322;5.926;2022-08-01T01:01:24;5.72;;;2.40;;
69188;SDS011;56302;52.322;5.926;2022-08-01T01:03:50;4.80;;;2.77;;
69188;SDS011;56302;52.322;5.926;2022-08-01T01:06:25;5.78;;;2.55;;
69188;SDS011;56302;52.322;5.926;2022-08-01T01:12:28;5.40;;;2.43;;
69188;SDS011;56302;52.322;5.926;2022-08-01T01:14:56;5.05;;;2.63;;
69188;SDS011;56302;52.322;5.926;2022-08-01T01:17:27;5.55;;;2.92;;
69188;SDS011;56302;52.322;5.926;2022-08-01T01:19:58;5.03;;;2.78;;
69188;SDS011;56302;52.322;5.926;2022-08-01T01:28:03;5.07;;;2.67;;
69188;SDS011;56302;52.322;5.926;2022-08-01T01:30:35;5.97;;;2.72;;
69188;SDS011;56302;52.322;5.926;2022-08-01T01:33:03;7.28;;;3.15;;
69188;SDS011;56302;52.322;5.926;2022-08-01T01:35:33;5.38;;;2.80;;
69188;SDS011;56302;52.322;5.926;2022-08-01T01:38:02;7.03;;;2.80;;
69188;SDS011;56302;52.322;5.926;2022-08-01T01:40:36;6.32;;;3.03;;
69188;SDS011;56302;52.322;5.926;2022-08-01T01:43:03;6.05;;;3.00;;
69188;SDS011;56302;52.322;5.926;2022-08-01T01:45:33;7.22;;;3.30;;
69188;SDS011;56302;52.322;5.926;2022-08-01T01:47:58;5.63;;;3.17;;
69188;SDS011;56302;52.322;5.926;2022-08-01T01:50:25;6.03;;;3.03;;
69188;SDS011;56302;52.322;5.926;2022-08-01T01:52:52;5.63;;;3.35;;
69188;SDS011;56302;52.322;5.926;2022-08-01T01:55:20;5.53;;;2.83;;
69188;SDS011;56302;52.322;5.926;2022-08-01T01:57:47;5.37;;;2.87;;
69188;SDS011;56302;52.322;5.926;2022-08-01T02:00:13;5.82;;;2.92;;
69188;SDS011;56302;52.322;5.926;2022-08-01T02:02:40;4.63;;;2.72;;
69188;SDS011;56302;52.322;5.926;2022-08-01T02:05:08;5.07;;;3.05;;
69188;SDS011;56302;52.322;5.926;2022-08-01T02:07:36;5.05;;;3.05;;
69188;SDS011;56302;52.322;5.926;2022-08-01T02:10:03;5.83;;;3.23;;
69188;SDS011;56302;52.322;5.926;2022-08-01T02:12:32;6.40;;;3.10;;
69188;SDS011;56302;52.322;5.926;2022-08-01T02:15:01;7.85;;;3.53;;
69188;SDS011;56302;52.322;5.926;2022-08-01T02:17:28;5.00;;;3.00;;
69188;SDS011;56302;52.322;5.926;2022-08-01T02:19:55;7.28;;;3.50;;
69188;SDS011;56302;52.322;5.926;2022-08-01T02:22:29;6.37;;;3.70;;
69188;SDS011;56302;52.322;5.926;2022-08-01T02:27:33;6.55;;;3.28;;
69188;SDS011;56302;52.322;5.926;2022-08-01T02:30:06;6.00;;;3.13;;
69188;SDS011;56302;52.322;5.926;2022-08-01T02:32:38;7.75;;;3.47;;
69188;SDS011;56302;52.322;5.926;2022-08-01T02:35:09;6.50;;;3.17;;
69188;SDS011;56302;52.322;5.926;2022-08-01T02:37:38;5.93;;;2.95;;
69188;SDS011;56302;52.322;5.926;2022-08-01T02:40:05;5.82;;;3.17;;
69188;SDS011;56302;52.322;5.926;2022-08-01T02:42:34;7.85;;;3.17;;
69188;SDS011;56302;52.322;5.926;2022-08-01T02:45:02;6.95;;;3.30;;
69188;SDS011;56302;52.322;5.926;2022-08-01T02:47:30;6.57;;;2.93;;
69188;SDS011;56302;52.322;5.926;2022-08-01T02:49:57;5.88;;;3.30;;
69188;SDS011;56302;52.322;5.926;2022-08-01T02:52:25;7.68;;;3.25;;
69188;SDS011;56302;52.322;5.926;2022-08-01T02:54:54;6.00;;;3.22;;
69188;SDS011;56302;52.322;5.926;2022-08-01T02:57:21;7.30;;;3.28;;
69188;SDS011;56302;52.322;5.926;2022-08-01T02:59:48;5.33;;;3.10;;
69188;SDS011;56302;52.322;5.926;2022-08-01T03:02:15;4.82;;;3.05;;
69188;SDS011;56302;52.322;5.926;2022-08-01T03:04:42;7.40;;;3.15;;
69188;SDS011;56302;52.322;5.926;2022-08-01T03:07:09;8.65;;;3.40;;
69188;SDS011;56302;52.322;5.926;2022-08-01T03:09:40;5.72;;;3.30;;
69188;SDS011;56302;52.322;5.926;2022-08-01T03:12:10;6.30;;;3.30;;
69188;SDS011;56302;52.322;5.926;2022-08-01T03:14:39;6.60;;;3.42;;
69188;SDS011;56302;52.322;5.926;2022-08-01T03:17:07;6.82;;;3.42;;
69188;SDS011;56302;52.322;5.926;2022-08-01T03:19:33;7.50;;;3.70;;
69188;SDS011;56302;52.322;5.926;2022-08-01T03:22:02;6.07;;;3.60;;
69188;SDS011;56302;52.322;5.926;2022-08-01T03:24:31;6.00;;;2.90;;
69188;SDS011;56302;52.322;5.926;2022-08-01T03:26:59;5.60;;;2.75;;
69188;SDS011;56302;52.322;5.926;2022-08-01T03:29:27;7.68;;;3.40;;
69188;SDS011;56302;52.322;5.926;2022-08-01T03:31:55;4.93;;;3.08;;
69188;SDS011;56302;52.322;5.926;2022-08-01T03:34:22;5.00;;;3.08;;
69188;SDS011;56302;52.322;5.926;2022-08-01T03:36:49;6.23;;;3.90;;
69188;SDS011;56302;52.322;5.926;2022-08-01T03:39:22;6.80;;;3.38;;
69188;SDS011;56302;52.322;5.926;2022-08-01T03:41:54;5.57;;;3.33;;
69188;SDS011;56302;52.322;5.926;2022-08-01T03:44:27;5.75;;;3.40;;
69188;SDS011;56302;52.322;5.926;2022-08-01T03:46:58;5.97;;;2.63;;
69188;SDS011;56302;52.322;5.926;2022-08-01T03:49:29;7.87;;;3.37;;
69188;SDS011;56302;52.322;5.926;2022-08-01T03:51:56;5.40;;;2.97;;
69188;SDS011;56302;52.322;5.926;2022-08-01T03:54:24;5.50;;;3.10;;
69188;SDS011;56302;52.322;5.926;2022-08-01T03:56:53;8.32;;;4.07;;
69188;SDS011;56302;52.322;5.926;2022-08-01T03:59:19;6.90;;;3.63;;
69188;SDS011;56302;52.322;5.926;2022-08-01T04:01:46;7.13;;;3.50;;
69188;SDS011;56302;52.322;5.926;2022-08-01T04:04:13;6.40;;;2.92;;
69188;SDS011;56302;52.322;5.926;2022-08-01T04:06:39;3.95;;;1.30;;
69188;SDS011;56302;52.322;5.926;2022-08-01T04:09:08;5.03;;;1.40;;
69188;SDS011;56302;52.322;5.926;2022-08-01T04:11:34;2.70;;;1.08;;
69188;SDS011;56302;52.322;5.926;2022-08-01T04:14:00;2.40;;;1.10;;
69188;SDS011;56302;52.322;5.926;2022-08-01T04:16:26;3.47;;;1.30;;
69188;SDS011;56302;52.322;5.926;2022-08-01T04:18:51;3.40;;;1.50;;
69188;SDS011;56302;52.322;5.926;2022-08-01T04:21:17;3.25;;;1.48;;
69188;SDS011;56302;52.322;5.926;2022-08-01T04:23:46;2.50;;;0.93;;
69188;SDS011;56302;52.322;5.926;2022-08-01T04:26:12;3.05;;;0.98;;
69188;SDS011;56302;52.322;5.926;2022-08-01T04:28:40;3.53;;;1.27;;
69188;SDS011;56302;52.322;5.926;2022-08-01T04:31:08;2.50;;;1.25;;
69188;SDS011;56302;52.322;5.926;2022-08-01T04:33:38;3.43;;;1.60;;
69188;SDS011;56302;52.322;5.926;2022-08-01T04:36:08;3.28;;;1.33;;
69188;SDS011;56302;52.322;5.926;2022-08-01T04:38:35;3.50;;;1.65;;
69188;SDS011;56302;52.322;5.926;2022-08-01T04:41:03;3.15;;;1.50;;
69188;SDS011;56302;52.322;5.926;2022-08-01T04:43:31;3.53;;;1.73;;
69188;SDS011;56302;52.322;5.926;2022-08-01T04:45:57;3.43;;;1.70;;
69188;SDS011;56302;52.322;5.926;2022-08-01T04:48:23;3.13;;;1.40;;
69188;SDS011;56302;52.322;5.926;2022-08-01T04:50:49;4.65;;;1.85;;
69188;SDS011;56302;52.322;5.926;2022-08-01T04:53:15;4.10;;;1.90;;
69188;SDS011;56302;52.322;5.926;2022-08-01T04:55:45;3.63;;;1.80;;
69188;SDS011;56302;52.322;5.926;2022-08-01T04:58:11;4.53;;;1.65;;
69188;SDS011;56302;52.322;5.926;2022-08-01T05:00:38;5.28;;;1.90;;
69188;SDS011;56302;52.322;5.926;2022-08-01T05:03:03;5.70;;;2.30;;
69188;SDS011;56302;52.322;5.926;2022-08-01T05:05:29;5.00;;;2.30;;
69188;SDS011;56302;52.322;5.926;2022-08-01T05:07:55;4.37;;;2.27;;
69188;SDS011;56302;52.322;5.926;2022-08-01T05:10:21;4.13;;;1.90;;
69188;SDS011;56302;52.322;5.926;2022-08-01T05:12:46;4.37;;;2.27;;
69188;SDS011;56302;52.322;5.926;2022-08-01T05:15:12;6.57;;;2.35;;
69188;SDS011;56302;52.322;5.926;2022-08-01T05:17:38;7.23;;;3.37;;
69188;SDS011;56302;52.322;5.926;2022-08-01T05:20:03;4.60;;;2.40;;
69188;SDS011;56302;52.322;5.926;2022-08-01T05:22:31;4.78;;;2.60;;
69188;SDS011;56302;52.322;5.926;2022-08-01T05:24:57;6.47;;;2.95;;
69188;SDS011;56302;52.322;5.926;2022-08-01T05:27:24;5.80;;;2.80;;
69188;SDS011;56302;52.322;5.926;2022-08-01T05:29:50;4.68;;;2.70;;
69188;SDS011;56302;52.322;5.926;2022-08-01T05:32:15;5.80;;;2.77;;
69188;SDS011;56302;52.322;5.926;2022-08-01T05:34:41;6.67;;;2.90;;
69188;SDS011;56302;52.322;5.926;2022-08-01T05:37:06;5.13;;;2.88;;
69188;SDS011;56302;52.322;5.926;2022-08-01T05:39:32;5.60;;;3.27;;
69188;SDS011;56302;52.322;5.926;2022-08-01T05:41:58;5.55;;;3.00;;
69188;SDS011;56302;52.322;5.926;2022-08-01T05:44:23;5.90;;;3.40;;
69188;SDS011;56302;52.322;5.926;2022-08-01T05:46:50;5.30;;;3.40;;
69188;SDS011;56302;52.322;5.926;2022-08-01T05:49:15;6.43;;;3.38;;
69188;SDS011;56302;52.322;5.926;2022-08-01T05:51:41;5.53;;;3.07;;
69188;SDS011;56302;52.322;5.926;2022-08-01T05:54:07;6.05;;;3.42;;
69188;SDS011;56302;52.322;5.926;2022-08-01T05:56:32;7.03;;;2.97;;
69188;SDS011;56302;52.322;5.926;2022-08-01T05:58:58;6.03;;;3.20;;
69188;SDS011;56302;52.322;5.926;2022-08-01T06:01:24;7.20;;;3.10;;
69188;SDS011;56302;52.322;5.926;2022-08-01T06:03:49;5.83;;;3.13;;
69188;SDS011;56302;52.322;5.926;2022-08-01T06:06:15;8.82;;;3.35;;
69188;SDS011;56302;52.322;5.926;2022-08-01T06:08:40;8.03;;;2.70;;
69188;SDS011;56302;52.322;5.926;2022-08-01T06:11:06;6.03;;;3.45;;
69188;SDS011;56302;52.322;5.926;2022-08-01T06:13:32;5.77;;;2.57;;
69188;SDS011;56302;52.322;5.926;2022-08-01T06:15:57;5.07;;;2.70;;
69188;SDS011;56302;52.322;5.926;2022-08-01T06:18:23;7.80;;;2.80;;
69188;SDS011;56302;52.322;5.926;2022-08-01T06:20:49;7.40;;;2.60;;
69188;SDS011;56302;52.322;5.926;2022-08-01T06:23:15;7.43;;;2.78;;
69188;SDS011;56302;52.322;5.926;2022-08-01T06:25:41;4.77;;;2.90;;
69188;SDS011;56302;52.322;5.926;2022-08-01T06:28:07;7.20;;;3.33;;
69188;SDS011;56302;52.322;5.926;2022-08-01T06:30:32;5.40;;;2.78;;
69188;SDS011;56302;52.322;5.926;2022-08-01T06:32:58;5.60;;;2.73;;
69188;SDS011;56302;52.322;5.926;2022-08-01T06:35:25;6.13;;;3.00;;
69188;SDS011;56302;52.322;5.926;2022-08-01T06:37:51;5.95;;;2.30;;
69188;SDS011;56302;52.322;5.926;2022-08-01T06:40:16;7.47;;;2.73;;
69188;SDS011;56302;52.322;5.926;2022-08-01T06:42:42;8.40;;;2.60;;
69188;SDS011;56302;52.322;5.926;2022-08-01T06:45:10;7.97;;;2.28;;
69188;SDS011;56302;52.322;5.926;2022-08-01T06:47:37;6.63;;;2.30;;
69188;SDS011;56302;52.322;5.926;2022-08-01T06:50:04;5.28;;;2.40;;
69188;SDS011;56302;52.322;5.926;2022-08-01T06:52:31;9.45;;;2.60;;
69188;SDS011;56302;52.322;5.926;2022-08-01T06:54:57;5.20;;;2.28;;
69188;SDS011;56302;52.322;5.926;2022-08-01T06:57:24;7.68;;;2.28;;
69188;SDS011;56302;52.322;5.926;2022-08-01T06:59:49;9.17;;;2.43;;
69188;SDS011;56302;52.322;5.926;2022-08-01T07:02:15;16.43;;;2.63;;
69188;SDS011;56302;52.322;5.926;2022-08-01T07:04:41;11.52;;;2.70;;
69188;SDS011;56302;52.322;5.926;2022-08-01T07:07:06;7.03;;;2.57;;
69188;SDS011;56302;52.322;5.926;2022-08-01T07:09:32;11.60;;;2.67;;
69188;SDS011;56302;52.322;5.926;2022-08-01T07:11:57;6.50;;;2.93;;
69188;SDS011;56302;52.322;5.926;2022-08-01T07:14:23;6.10;;;2.13;;
69188;SDS011;56302;52.322;5.926;2022-08-01T07:16:49;7.50;;;2.55;;
69188;SDS011;56302;52.322;5.926;2022-08-01T07:19:15;9.38;;;2.58;;
69188;SDS011;56302;52.322;5.926;2022-08-01T07:21:42;7.70;;;3.10;;
69188;SDS011;56302;52.322;5.926;2022-08-01T07:24:08;8.30;;;2.37;;
69188;SDS011;56302;52.322;5.926;2022-08-01T07:26:35;13.90;;;2.85;;
69188;SDS011;56302;52.322;5.926;2022-08-01T07:29:01;11.98;;;3.03;;
69188;SDS011;56302;52.322;5.926;2022-08-01T07:31:27;12.13;;;3.50;;
69188;SDS011;56302;52.322;5.926;2022-08-01T07:33:53;10.77;;;3.10;;
69188;SDS011;56302;52.322;5.926;2022-08-01T07:36:19;8.90;;;3.47;;
69188;SDS011;56302;52.322;5.926;2022-08-01T07:38:44;10.20;;;3.47;;
69188;SDS011;56302;52.322;5.926;2022-08-01T07:41:11;8.15;;;3.05;;
69188;SDS011;56302;52.322;5.926;2022-08-01T07:43:37;11.57;;;2.90;;
69188;SDS011;56302;52.322;5.926;2022-08-01T07:46:03;12.57;;;3.13;;
69188;SDS011;56302;52.322;5.926;2022-08-01T07:48:30;11.20;;;3.10;;
69188;SDS011;56302;52.322;5.926;2022-08-01T07:50:55;14.50;;;3.60;;
69188;SDS011;56302;52.322;5.926;2022-08-01T07:53:21;12.70;;;2.97;;
69188;SDS011;56302;52.322;5.926;2022-08-01T07:55:47;12.20;;;3.35;;
69188;SDS011;56302;52.322;5.926;2022-08-01T07:58:13;14.53;;;2.90;;
69188;SDS011;56302;52.322;5.926;2022-08-01T08:00:39;15.10;;;2.85;;
69188;SDS011;56302;52.322;5.926;2022-08-01T08:03:04;12.63;;;2.95;;
69188;SDS011;56302;52.322;5.926;2022-08-01T08:05:30;15.47;;;3.53;;
69188;SDS011;56302;52.322;5.926;2022-08-01T08:07:59;12.75;;;3.60;;
69188;SDS011;56302;52.322;5.926;2022-08-01T08:10:32;15.43;;;2.87;;
69188;SDS011;56302;52.322;5.926;2022-08-01T08:12:58;13.48;;;3.00;;
69188;SDS011;56302;52.322;5.926;2022-08-01T08:15:24;16.33;;;2.92;;
69188;SDS011;56302;52.322;5.926;2022-08-01T08:17:49;11.57;;;2.50;;
69188;SDS011;56302;52.322;5.926;2022-08-01T08:20:15;14.33;;;3.20;;
69188;SDS011;56302;52.322;5.926;2022-08-01T08:22:41;10.80;;;3.13;;
69188;SDS011;56302;52.322;5.926;2022-08-01T08:25:07;14.90;;;3.00;;
69188;SDS011;56302;52.322;5.926;2022-08-01T08:27:34;15.35;;;3.30;;
69188;SDS011;56302;52.322;5.926;2022-08-01T08:30:01;13.70;;;2.80;;
69188;SDS011;56302;52.322;5.926;2022-08-01T08:32:27;11.77;;;2.80;;
69188;SDS011;56302;52.322;5.926;2022-08-01T08:34:53;10.13;;;2.50;;
69188;SDS011;56302;52.322;5.926;2022-08-01T08:37:18;10.80;;;2.43;;
69188;SDS011;56302;52.322;5.926;2022-08-01T08:39:44;11.27;;;2.60;;
69188;SDS011;56302;52.322;5.926;2022-08-01T08:42:10;12.50;;;2.55;;
69188;SDS011;56302;52.322;5.926;2022-08-01T08:44:36;12.70;;;2.42;;
69188;SDS011;56302;52.322;5.926;2022-08-01T08:47:03;14.47;;;2.57;;
69188;SDS011;56302;52.322;5.926;2022-08-01T08:49:33;11.07;;;2.35;;
69188;SDS011;56302;52.322;5.926;2022-08-01T08:52:00;10.73;;;2.50;;
69188;SDS011;56302;52.322;5.926;2022-08-01T08:54:26;9.80;;;1.98;;
69188;SDS011;56302;52.322;5.926;2022-08-01T08:56:53;11.98;;;2.38;;
69188;SDS011;56302;52.322;5.926;2022-08-01T08:59:21;10.17;;;2.20;;
69188;SDS011;56302;52.322;5.926;2022-08-01T09:01:51;15.70;;;3.80;;
69188;SDS011;56302;52.322;5.926;2022-08-01T09:04:16;9.73;;;2.00;;
69188;SDS011;56302;52.322;5.926;2022-08-01T09:06:42;11.40;;;2.10;;
69188;SDS011;56302;52.322;5.926;2022-08-01T09:09:08;10.18;;;2.63;;
69188;SDS011;56302;52.322;5.926;2022-08-01T09:11:36;7.87;;;1.57;;
69188;SDS011;56302;52.322;5.926;2022-08-01T09:14:07;11.25;;;2.10;;
69188;SDS011;56302;52.322;5.926;2022-08-01T09:16:33;12.25;;;1.77;;
69188;SDS011;56302;52.322;5.926;2022-08-01T09:19:06;9.60;;;1.98;;
69188;SDS011;56302;52.322;5.926;2022-08-01T09:21:38;8.52;;;2.20;;
69188;SDS011;56302;52.322;5.926;2022-08-01T09:24:12;7.63;;;1.70;;
69188;SDS011;56302;52.322;5.926;2022-08-01T09:26:40;8.88;;;2.05;;
69188;SDS011;56302;52.322;5.926;2022-08-01T09:29:06;10.70;;;2.17;;
69188;SDS011;56302;52.322;5.926;2022-08-01T09:31:43;9.68;;;2.00;;
69188;SDS011;56302;52.322;5.926;2022-08-01T09:34:09;11.97;;;1.97;;
69188;SDS011;56302;52.322;5.926;2022-08-01T09:36:54;11.35;;;2.53;;
69188;SDS011;56302;52.322;5.926;2022-08-01T09:39:25;9.02;;;2.00;;
69188;SDS011;56302;52.322;5.926;2022-08-01T09:41:53;9.50;;;1.70;;
69188;SDS011;56302;52.322;5.926;2022-08-01T09:44:26;8.52;;;2.20;;
69188;SDS011;56302;52.322;5.926;2022-08-01T09:47:05;9.68;;;2.20;;
69188;SDS011;56302;52.322;5.926;2022-08-01T09:49:32;11.67;;;2.03;;
69188;SDS011;56302;52.322;5.926;2022-08-01T09:52:09;10.00;;;1.40;;
69188;SDS011;56302;52.322;5.926;2022-08-01T09:54:36;9.23;;;2.15;;
69188;SDS011;56302;52.322;5.926;2022-08-01T09:59:44;8.20;;;1.80;;
69188;SDS011;56302;52.322;5.926;2022-08-01T10:05:01;8.45;;;1.83;;
69188;SDS011;56302;52.322;5.926;2022-08-01T10:07:28;9.88;;;1.90;;
69188;SDS011;56302;52.322;5.926;2022-08-01T10:09:54;12.40;;;2.10;;
69188;SDS011;56302;52.322;5.926;2022-08-01T10:12:21;10.70;;;1.63;;
69188;SDS011;56302;52.322;5.926;2022-08-01T10:14:49;8.63;;;2.45;;
69188;SDS011;56302;52.322;5.926;2022-08-01T10:17:18;7.57;;;1.67;;
69188;SDS011;56302;52.322;5.926;2022-08-01T10:19:44;10.30;;;2.17;;
69188;SDS011;56302;52.322;5.926;2022-08-01T10:22:11;9.20;;;2.25;;
69188;SDS011;56302;52.322;5.926;2022-08-01T10:24:45;9.07;;;2.00;;
69188;SDS011;56302;52.322;5.926;2022-08-01T10:27:13;8.48;;;2.03;;
69188;SDS011;56302;52.322;5.926;2022-08-01T10:32:28;8.18;;;1.90;;
69188;SDS011;56302;52.322;5.926;2022-08-01T10:34:55;6.00;;;1.55;;
69188;SDS011;56302;52.322;5.926;2022-08-01T10:37:21;11.27;;;1.87;;
69188;SDS011;56302;52.322;5.926;2022-08-01T10:39:47;13.77;;;2.67;;
69188;SDS011;56302;52.322;5.926;2022-08-01T10:42:15;8.15;;;1.83;;
69188;SDS011;56302;52.322;5.926;2022-08-01T10:44:42;8.57;;;1.98;;
69188;SDS011;56302;52.322;5.926;2022-08-01T10:47:12;8.52;;;1.63;;
69188;SDS011;56302;52.322;5.926;2022-08-01T10:53:31;10.85;;;1.83;;
69188;SDS011;56302;52.322;5.926;2022-08-01T11:03:55;7.07;;;1.50;;
69188;SDS011;56302;52.322;5.926;2022-08-01T11:06:24;8.65;;;1.73;;
69188;SDS011;56302;52.322;5.926;2022-08-01T11:08:53;8.13;;;2.13;;
69188;SDS011;56302;52.322;5.926;2022-08-01T11:11:19;6.28;;;1.70;;
69188;SDS011;56302;52.322;5.926;2022-08-01T11:16:34;7.00;;;1.53;;
69188;SDS011;56302;52.322;5.926;2022-08-01T11:19:02;9.50;;;1.60;;
69188;SDS011;56302;52.322;5.926;2022-08-01T11:27:46;11.38;;;1.98;;
69188;SDS011;56302;52.322;5.926;2022-08-01T11:32:53;6.23;;;1.77;;
69188;SDS011;56302;52.322;5.926;2022-08-01T11:35:20;7.82;;;1.92;;
69188;SDS011;56302;52.322;5.926;2022-08-01T11:37:52;10.48;;;1.98;;
69188;SDS011;56302;52.322;5.926;2022-08-01T11:40:21;8.23;;;2.05;;
69188;SDS011;56302;52.322;5.926;2022-08-01T11:43:16;12.47;;;2.20;;
69188;SDS011;56302;52.322;5.926;2022-08-01T11:45:48;7.57;;;2.00;;
69188;SDS011;56302;52.322;5.926;2022-08-01T11:48:21;10.63;;;1.75;;
69188;SDS011;56302;52.322;5.926;2022-08-01T11:50:49;8.30;;;2.17;;
69188;SDS011;56302;52.322;5.926;2022-08-01T11:53:16;9.55;;;2.08;;
69188;SDS011;56302;52.322;5.926;2022-08-01T11:55:51;9.17;;;1.80;;
69188;SDS011;56302;52.322;5.926;2022-08-01T11:58:23;8.82;;;1.88;;
69188;SDS011;56302;52.322;5.926;2022-08-01T12:00:54;10.07;;;1.50;;
69188;SDS011;56302;52.322;5.926;2022-08-01T12:03:28;5.18;;;1.65;;
69188;SDS011;56302;52.322;5.926;2022-08-01T12:05:55;10.40;;;2.15;;
69188;SDS011;56302;52.322;5.926;2022-08-01T12:08:25;8.87;;;2.37;;
69188;SDS011;56302;52.322;5.926;2022-08-01T12:10:51;9.57;;;1.63;;
69188;SDS011;56302;52.322;5.926;2022-08-01T12:13:17;6.75;;;1.58;;
69188;SDS011;56302;52.322;5.926;2022-08-01T12:15:43;5.55;;;1.58;;
69188;SDS011;56302;52.322;5.926;2022-08-01T12:18:10;8.40;;;1.60;;
69188;SDS011;56302;52.322;5.926;2022-08-01T12:20:38;7.25;;;1.55;;
69188;SDS011;56302;52.322;5.926;2022-08-01T12:23:07;11.48;;;1.73;;
69188;SDS011;56302;52.322;5.926;2022-08-01T12:25:35;6.85;;;1.58;;
69188;SDS011;56302;52.322;5.926;2022-08-01T12:28:02;9.30;;;1.42;;
69188;SDS011;56302;52.322;5.926;2022-08-01T12:30:30;4.73;;;1.30;;
69188;SDS011;56302;52.322;5.926;2022-08-01T12:32:59;5.57;;;1.58;;
69188;SDS011;56302;52.322;5.926;2022-08-01T12:35:27;6.35;;;1.90;;
69188;SDS011;56302;52.322;5.926;2022-08-01T12:37:57;6.10;;;1.75;;
69188;SDS011;56302;52.322;5.926;2022-08-01T12:40:26;5.82;;;1.70;;
69188;SDS011;56302;52.322;5.926;2022-08-01T12:42:54;9.97;;;1.50;;
69188;SDS011;56302;52.322;5.926;2022-08-01T12:45:24;7.53;;;1.30;;
69188;SDS011;56302;52.322;5.926;2022-08-01T12:47:54;6.68;;;1.48;;
69188;SDS011;56302;52.322;5.926;2022-08-01T12:50:23;6.85;;;1.38;;
69188;SDS011;56302;52.322;5.926;2022-08-01T12:52:50;6.93;;;1.65;;
69188;SDS011;56302;52.322;5.926;2022-08-01T12:57:44;5.10;;;1.20;;
69188;SDS011;56302;52.322;5.926;2022-08-01T13:00:16;6.82;;;1.58;;
69188;SDS011;56302;52.322;5.926;2022-08-01T13:02:44;5.35;;;1.30;;
69188;SDS011;56302;52.322;5.926;2022-08-01T13:05:11;5.43;;;1.38;;
69188;SDS011;56302;52.322;5.926;2022-08-01T13:07:43;4.07;;;1.30;;
69188;SDS011;56302;52.322;5.926;2022-08-01T13:10:10;5.68;;;1.50;;
69188;SDS011;56302;52.322;5.926;2022-08-01T13:12:36;6.57;;;1.90;;
69188;SDS011;56302;52.322;5.926;2022-08-01T13:15:19;4.65;;;1.25;;
69188;SDS011;56302;52.322;5.926;2022-08-01T13:17:49;4.72;;;1.38;;
69188;SDS011;56302;52.322;5.926;2022-08-01T13:20:26;5.90;;;1.33;;
69188;SDS011;56302;52.322;5.926;2022-08-01T13:23:11;4.45;;;1.00;;
69188;SDS011;56302;52.322;5.926;2022-08-01T13:25:51;6.38;;;1.52;;
69188;SDS011;56302;52.322;5.926;2022-08-01T13:28:27;4.78;;;1.50;;
69188;SDS011;56302;52.322;5.926;2022-08-01T13:33:44;5.73;;;1.50;;
69188;SDS011;56302;52.322;5.926;2022-08-01T13:36:12;4.93;;;1.60;;
69188;SDS011;56302;52.322;5.926;2022-08-01T13:38:39;6.05;;;1.30;;
69188;SDS011;56302;52.322;5.926;2022-08-01T13:41:24;5.78;;;1.25;;
69188;SDS011;56302;52.322;5.926;2022-08-01T13:43:50;5.73;;;1.23;;
69188;SDS011;56302;52.322;5.926;2022-08-01T13:46:16;8.50;;;1.60;;
69188;SDS011;56302;52.322;5.926;2022-08-01T13:48:41;5.07;;;1.63;;
69188;SDS011;56302;52.322;5.926;2022-08-01T13:51:07;3.67;;;1.15;;
69188;SDS011;56302;52.322;5.926;2022-08-01T13:53:32;6.20;;;1.23;;
69188;SDS011;56302;52.322;5.926;2022-08-01T13:55:58;5.20;;;1.47;;
69188;SDS011;56302;52.322;5.926;2022-08-01T13:58:24;5.07;;;1.20;;
69188;SDS011;56302;52.322;5.926;2022-08-01T14:00:49;5.27;;;1.27;;
69188;SDS011;56302;52.322;5.926;2022-08-01T14:03:15;5.97;;;1.27;;
69188;SDS011;56302;52.322;5.926;2022-08-01T14:05:41;4.15;;;1.30;;
69188;SDS011;56302;52.322;5.926;2022-08-01T14:08:08;6.40;;;1.57;;
69188;SDS011;56302;52.322;5.926;2022-08-01T14:10:34;4.68;;;1.40;;
69188;SDS011;56302;52.322;5.926;2022-08-01T14:12:59;5.23;;;1.60;;
69188;SDS011;56302;52.322;5.926;2022-08-01T14:15:25;7.57;;;1.60;;
69188;SDS011;56302;52.322;5.926;2022-08-01T14:17:51;5.30;;;1.30;;
69188;SDS011;56302;52.322;5.926;2022-08-01T14:20:16;4.45;;;1.40;;
69188;SDS011;56302;52.322;5.926;2022-08-01T14:22:44;6.75;;;2.03;;
69188;SDS011;56302;52.322;5.926;2022-08-01T14:25:11;5.70;;;1.30;;
69188;SDS011;56302;52.322;5.926;2022-08-01T14:27:36;4.00;;;1.00;;
69188;SDS011;56302;52.322;5.926;2022-08-01T14:30:02;5.57;;;1.10;;
69188;SDS011;56302;52.322;5.926;2022-08-01T14:32:28;5.13;;;1.25;;
69188;SDS011;56302;52.322;5.926;2022-08-01T14:34:55;5.90;;;1.30;;
69188;SDS011;56302;52.322;5.926;2022-08-01T14:37:21;4.87;;;1.00;;
69188;SDS011;56302;52.322;5.926;2022-08-01T14:39:48;6.38;;;1.00;;
69188;SDS011;56302;52.322;5.926;2022-08-01T14:42:13;6.40;;;1.20;;
69188;SDS011;56302;52.322;5.926;2022-08-01T14:44:39;4.57;;;0.90;;
69188;SDS011;56302;52.322;5.926;2022-08-01T14:47:04;5.17;;;1.20;;
69188;SDS011;56302;52.322;5.926;2022-08-01T14:49:30;5.10;;;1.00;;
69188;SDS011;56302;52.322;5.926;2022-08-01T14:51:55;3.17;;;0.80;;
69188;SDS011;56302;52.322;5.926;2022-08-01T14:54:21;5.50;;;1.10;;
69188;SDS011;56302;52.322;5.926;2022-08-01T14:56:46;2.87;;;0.90;;
69188;SDS011;56302;52.322;5.926;2022-08-01T14:59:12;6.53;;;1.15;;
69188;SDS011;56302;52.322;5.926;2022-08-01T15:01:37;3.67;;;0.83;;
69188;SDS011;56302;52.322;5.926;2022-08-01T15:04:03;4.23;;;1.10;;
69188;SDS011;56302;52.322;5.926;2022-08-01T15:06:29;3.35;;;0.98;;
69188;SDS011;56302;52.322;5.926;2022-08-01T15:08:54;3.77;;;1.40;;
69188;SDS011;56302;52.322;5.926;2022-08-01T15:11:20;4.33;;;1.20;;
69188;SDS011;56302;52.322;5.926;2022-08-01T15:13:45;7.70;;;1.30;;
69188;SDS011;56302;52.322;5.926;2022-08-01T15:16:31;5.88;;;1.27;;
69188;SDS011;56302;52.322;5.926;2022-08-01T15:18:56;4.67;;;1.60;;
69188;SDS011;56302;52.322;5.926;2022-08-01T15:21:22;5.67;;;1.10;;
69188;SDS011;56302;52.322;5.926;2022-08-01T15:23:47;4.38;;;1.10;;
69188;SDS011;56302;52.322;5.926;2022-08-01T15:26:13;7.70;;;1.13;;
69188;SDS011;56302;52.322;5.926;2022-08-01T15:28:39;6.18;;;0.80;;
69188;SDS011;56302;52.322;5.926;2022-08-01T15:31:04;5.03;;;1.40;;
69188;SDS011;56302;52.322;5.926;2022-08-01T15:33:30;5.07;;;1.40;;
69188;SDS011;56302;52.322;5.926;2022-08-01T15:35:55;4.40;;;1.17;;